Terminal Aerodrome Forecast
Issued by NWS

Home | Current Version | Previous Version | Text Only | Print | Product List | Glossary Off
Versions: 1 2 3 4 5 6 7 8 9 10 11 12 13 14 15 16

000
FTUS43 KFGF 211100
TAFBJI
TAF
KBJI 211121Z 2112/2212 VRB02KT 1/4SM FG OVC002
     FM211300 13006KT P6SM SCT250
     FM220200 09008KT P6SM TSRA BKN050CB
     FM221000 36005KT P6SM BKN025=

USA.gov is the U.S. government's official web portal to all federal, state and local government web resources and services.